Time;durP1;ratioP1;P1;durP2;ratioP2;P2;SDS_P1;SDS_P2;PMS_P1;PMS_P2;Temp;Humidity;BMP_temperature;BMP_pressure;BME280_temperature;BME280_humidity;BME280_pressure;Samples;Min_cycle;Max_cycle;Signal;HPM_P1;HPM_P2
2021/01/21 00:01:55;;;;;;;5.97;2.28;;;;;;;5.05;69.77;99369.53;4964781;28;20054;-74
2021/01/21 00:04:22;;;;;;;3.65;1.80;;;;;;;5.14;69.38;99376.00;4977607;28;20047;-74
2021/01/21 00:06:48;;;;;;;4.72;2.78;;;;;;;5.04;69.13;99367.84;4966131;28;20075;-73
2021/01/21 00:09:16;;;;;;;3.45;1.90;;;;;;;5.00;69.12;99374.19;4968697;28;20050;-73
2021/01/21 00:11:43;;;;;;;4.50;1.98;;;;;;;5.03;69.14;99381.81;4966362;28;20047;-74
2021/01/21 00:14:10;;;;;;;3.38;1.88;;;;;;;4.93;70.14;99380.66;4957614;28;20117;-73
2021/01/21 00:16:36;;;;;;;4.07;2.10;;;;;;;5.06;69.27;99372.06;4956939;29;20094;-74
2021/01/21 00:19:03;;;;;;;6.97;1.80;;;;;;;5.02;68.67;99367.09;4949756;28;20058;-74
2021/01/21 00:21:30;;;;;;;3.25;2.28;;;;;;;4.90;69.60;99365.16;4953847;28;20056;-74
2021/01/21 00:23:58;;;;;;;7.43;2.00;;;;;;;4.93;69.45;99368.44;4943832;28;20058;-74
2021/01/21 00:26:26;;;;;;;6.20;2.17;;;;;;;4.77;70.02;99370.22;4950261;28;20047;-73
2021/01/21 00:28:53;;;;;;;3.85;2.17;;;;;;;4.62;70.09;99356.25;4963674;28;20043;-74
2021/01/21 00:31:20;;;;;;;7.85;2.13;;;;;;;4.71;70.25;99353.16;4946491;28;20065;-74
2021/01/21 00:33:46;;;;;;;4.40;2.58;;;;;;;4.66;70.02;99351.72;4945837;28;20047;-73
2021/01/21 00:36:13;;;;;;;3.75;1.88;;;;;;;4.65;70.12;99355.25;4946925;28;20051;-73
2021/01/21 00:38:40;;;;;;;4.82;2.65;;;;;;;4.64;70.73;99362.25;4954054;28;20060;-74
2021/01/21 00:41:07;;;;;;;7.90;2.53;;;;;;;4.52;70.36;99353.31;4962558;28;20061;-74
2021/01/21 00:43:34;;;;;;;4.30;2.53;;;;;;;4.53;70.43;99354.16;4971712;28;20062;-74
2021/01/21 00:46:00;;;;;;;4.15;2.10;;;;;;;4.48;70.16;99348.34;4951872;28;20047;-74
2021/01/21 00:48:27;;;;;;;3.95;1.98;;;;;;;4.53;70.09;99352.38;4942416;29;20063;-73
2021/01/21 00:50:54;;;;;;;4.55;2.33;;;;;;;4.43;70.52;99340.78;4951160;28;20142;-74
2021/01/21 00:53:21;;;;;;;5.03;1.70;;;;;;;4.32;70.91;99333.56;4963209;28;20063;-74
2021/01/21 00:55:48;;;;;;;6.35;2.10;;;;;;;4.32;70.50;99325.75;4953905;28;20136;-73
2021/01/21 00:58:15;;;;;;;3.83;2.30;;;;;;;4.45;69.79;99331.09;4976081;28;20059;-74
2021/01/21 01:00:44;;;;;;;4.32;1.73;;;;;;;4.43;70.43;99338.19;4972555;28;20075;-73
2021/01/21 01:03:10;;;;;;;4.93;1.83;;;;;;;4.50;69.35;99336.06;4958318;28;20063;-73
2021/01/21 01:05:37;;;;;;;7.05;2.03;;;;;;;4.49;69.41;99331.78;4962022;28;20131;-73
2021/01/21 01:08:04;;;;;;;2.78;1.80;;;;;;;4.51;69.43;99341.22;4976479;28;20047;-73
2021/01/21 01:10:31;;;;;;;5.55;1.90;;;;;;;4.42;69.29;99343.50;4964438;28;20054;-74
2021/01/21 01:12:58;;;;;;;5.05;2.30;;;;;;;4.42;69.50;99326.09;4944784;28;20090;-74
2021/01/21 01:15:27;;;;;;;5.28;2.17;;;;;;;4.42;69.31;99327.84;4945808;29;20063;-75
2021/01/21 01:17:54;;;;;;;4.60;1.70;;;;;;;4.49;68.82;99330.03;4946823;28;20053;-73
2021/01/21 01:20:21;;;;;;;4.10;1.95;;;;;;;4.56;69.20;99320.97;4967010;28;20138;-74
2021/01/21 01:22:51;;;;;;;3.80;2.25;;;;;;;4.53;68.92;99331.53;4960070;28;20146;-75
2021/01/21 01:25:21;;;;;;;5.32;2.10;;;;;;;4.48;68.77;99317.91;4959786;28;20474;-75
2021/01/21 01:27:48;;;;;;;3.20;1.85;;;;;;;4.58;68.64;99310.44;4953536;28;20078;-74
2021/01/21 01:30:17;;;;;;;2.47;1.58;;;;;;;4.54;68.85;99312.38;4967007;28;20086;-74
2021/01/21 01:32:47;;;;;;;5.07;1.85;;;;;;;4.66;67.89;99317.84;4957778;28;20142;-74
2021/01/21 01:35:14;;;;;;;3.63;1.85;;;;;;;4.68;67.71;99310.75;4913671;29;20138;-74
2021/01/21 01:37:42;;;;;;;6.85;1.80;;;;;;;4.71;67.21;99300.16;4945515;28;20059;-74
2021/01/21 01:40:09;;;;;;;3.50;1.70;;;;;;;4.80;66.72;99308.31;4948838;28;20055;-74
2021/01/21 01:42:36;;;;;;;4.28;2.10;;;;;;;4.75;67.05;99299.06;4950187;28;20051;-77
2021/01/21 01:45:05;;;;;;;4.57;1.60;;;;;;;4.83;66.63;99299.50;4947625;28;20062;-75
2021/01/21 01:47:31;;;;;;;4.03;1.67;;;;;;;4.86;66.67;99301.91;4946805;28;20047;-75
2021/01/21 01:49:59;;;;;;;4.72;2.30;;;;;;;4.86;65.88;99291.47;4946519;28;20166;-73
2021/01/21 01:52:27;;;;;;;4.28;1.95;;;;;;;4.94;65.61;99288.44;4948859;28;20066;-74
2021/01/21 01:54:54;;;;;;;4.07;1.98;;;;;;;4.97;65.79;99290.88;4945442;28;20055;-74
2021/01/21 01:57:22;;;;;;;4.18;1.83;;;;;;;4.98;65.48;99284.72;4947403;28;20059;-74
2021/01/21 01:59:53;;;;;;;4.50;2.22;;;;;;;4.91;66.21;99283.38;4945812;28;20043;-74
2021/01/21 02:02:20;;;;;;;3.90;1.60;;;;;;;4.95;64.92;99292.72;4959786;28;20071;-74
2021/01/21 02:04:47;;;;;;;6.22;2.25;;;;;;;4.96;65.37;99281.38;4948434;28;20047;-74
2021/01/21 02:07:13;;;;;;;3.58;1.80;;;;;;;4.96;65.50;99276.16;4950611;28;20054;-74
2021/01/21 02:09:40;;;;;;;3.75;1.52;;;;;;;4.93;65.92;99273.72;4946148;28;20158;-72
2021/01/21 02:12:07;;;;;;;2.90;1.70;;;;;;;4.95;65.60;99275.31;4941240;28;20062;-76
2021/01/21 02:14:45;;;;;;;2.95;1.58;;;;;;;4.96;65.47;99263.97;4966081;28;20062;-74
2021/01/21 02:17:24;;;;;;;3.28;1.55;;;;;;;5.05;64.78;99263.44;4953385;28;20185;-75
2021/01/21 02:20:33;;;;;;;3.47;1.92;;;;;;;5.04;64.60;99259.16;4966300;28;20055;-75
2021/01/21 02:23:18;;;;;;;4.68;2.08;;;;;;;5.04;64.90;99258.28;4945799;28;20058;-72
2021/01/21 02:25:53;;;;;;;4.57;1.67;;;;;;;4.92;65.08;99248.59;4953709;28;20047;-74
2021/01/21 02:28:49;;;;;;;4.78;2.00;;;;;;;4.98;65.54;99250.81;4969639;28;20093;-74
2021/01/21 02:31:47;;;;;;;4.85;2.00;;;;;;;4.98;64.68;99243.84;4937523;28;20043;-74
2021/01/21 02:34:23;;;;;;;4.93;2.08;;;;;;;5.12;65.56;99244.81;4953675;28;20064;-72
2021/01/21 02:36:55;;;;;;;5.32;1.88;;;;;;;5.00;65.07;99246.38;4950557;28;20111;-73
2021/01/21 02:39:24;;;;;;;3.83;2.08;;;;;;;4.88;65.80;99244.47;4962791;28;20502;-74
2021/01/21 02:41:51;;;;;;;3.03;1.58;;;;;;;5.00;64.75;99235.94;4952845;28;20055;-73
2021/01/21 02:44:17;;;;;;;3.30;1.77;;;;;;;5.11;64.70;99232.69;4958733;28;20436;-74
2021/01/21 02:46:45;;;;;;;4.72;2.00;;;;;;;5.16;64.84;99236.72;4936587;28;20477;-74
2021/01/21 02:49:12;;;;;;;4.03;2.03;;;;;;;5.18;64.33;99236.59;4951979;28;20051;-75
2021/01/21 02:51:44;;;;;;;5.05;1.77;;;;;;;5.23;64.01;99226.78;4952970;28;20054;-73
2021/01/21 02:54:43;;;;;;;3.63;1.50;;;;;;;5.20;64.34;99221.72;4946210;28;20098;-73
2021/01/21 02:57:25;;;;;;;4.35;1.45;;;;;;;5.36;63.45;99216.41;4952050;28;20564;-73
2021/01/21 02:59:56;;;;;;;3.60;1.58;;;;;;;5.29;63.64;99215.97;4959826;28;20055;-73
2021/01/21 03:02:25;;;;;;;3.58;1.60;;;;;;;5.21;64.10;99215.56;4952753;28;20051;-73
2021/01/21 03:04:53;;;;;;;2.47;1.77;;;;;;;5.23;64.10;99221.56;4954211;28;20089;-72
2021/01/21 03:07:22;;;;;;;2.38;1.45;;;;;;;5.24;63.42;99220.63;4956090;28;20054;-74
2021/01/21 03:09:49;;;;;;;4.18;1.60;;;;;;;5.18;63.34;99214.00;4952421;28;20139;-74
2021/01/21 03:12:20;;;;;;;2.30;1.27;;;;;;;5.33;63.34;99222.69;4957077;28;20055;-74
2021/01/21 03:14:49;;;;;;;3.53;1.67;;;;;;;5.36;63.30;99232.94;4951510;28;20135;-74
2021/01/21 03:17:16;;;;;;;3.33;1.48;;;;;;;5.31;63.39;99225.38;4963847;28;20094;-74
2021/01/21 03:19:43;;;;;;;2.53;1.65;;;;;;;5.44;62.24;99212.41;4952311;28;20046;-73
2021/01/21 03:22:10;;;;;;;2.78;1.52;;;;;;;5.49;62.61;99215.63;4974144;28;20073;-74
2021/01/21 03:24:37;;;;;;;5.72;1.80;;;;;;;5.54;62.66;99210.13;4968744;28;20047;-73
2021/01/21 03:27:03;;;;;;;2.78;1.00;;;;;;;5.57;62.25;99202.06;4952744;28;20055;-73
2021/01/21 03:29:30;;;;;;;3.13;1.75;;;;;;;5.55;62.48;99204.78;4939118;28;20062;-72
2021/01/21 03:31:57;;;;;;;4.28;1.73;;;;;;;5.51;62.71;99210.28;4967102;28;20600;-74
2021/01/21 03:34:26;;;;;;;3.30;1.33;;;;;;;5.52;62.12;99197.13;4949355;28;20054;-75
2021/01/21 03:36:53;;;;;;;5.65;1.63;;;;;;;5.65;62.53;99191.19;4951262;28;20051;-76
2021/01/21 03:39:20;;;;;;;1.88;1.38;;;;;;;5.67;61.66;99202.34;4953807;28;20058;-76
2021/01/21 03:41:50;;;;;;;4.10;1.70;;;;;;;5.61;62.28;99194.91;4948912;28;20043;-75
2021/01/21 03:44:17;;;;;;;2.92;1.50;;;;;;;5.53;62.01;99187.53;4947313;28;20481;-76
2021/01/21 03:46:44;;;;;;;4.25;1.67;;;;;;;5.50;62.14;99185.13;4946645;28;20125;-76
2021/01/21 03:49:11;;;;;;;4.30;1.63;;;;;;;5.49;62.48;99184.28;4949928;28;20445;-75
2021/01/21 03:51:38;;;;;;;2.55;1.35;;;;;;;5.46;62.70;99192.31;4947760;28;20560;-75
2021/01/21 03:54:05;;;;;;;3.35;1.60;;;;;;;5.32;63.21;99174.88;4945894;28;20481;-75
2021/01/21 03:56:31;;;;;;;3.22;1.70;;;;;;;5.42;62.72;99175.16;4955548;28;20059;-75
2021/01/21 03:58:58;;;;;;;3.50;1.50;;;;;;;5.43;62.36;99166.38;4984444;28;20131;-74
2021/01/21 04:01:25;;;;;;;4.93;1.83;;;;;;;5.37;63.05;99161.53;4960311;28;21365;-75
2021/01/21 04:03:52;;;;;;;2.72;1.40;;;;;;;5.31;62.97;99162.75;4952323;28;20054;-76
2021/01/21 04:06:19;;;;;;;2.53;1.52;;;;;;;5.27;63.08;99160.44;4954570;28;20063;-75
2021/01/21 04:08:46;;;;;;;3.63;1.52;;;;;;;5.30;63.75;99155.00;4962423;28;21549;-75
2021/01/21 04:11:12;;;;;;;4.25;1.70;;;;;;;5.28;63.31;99149.88;4954947;28;20523;-75
2021/01/21 04:13:39;;;;;;;5.95;2.00;;;;;;;5.29;63.46;99146.34;4948975;28;20070;-75
2021/01/21 04:16:06;;;;;;;2.45;1.60;;;;;;;5.28;63.71;99141.22;4951598;28;20109;-76
2021/01/21 04:18:33;;;;;;;3.33;1.60;;;;;;;5.32;63.24;99146.16;4945597;28;20090;-75
2021/01/21 04:21:00;;;;;;;6.38;1.83;;;;;;;5.30;63.17;99144.56;4942323;28;20406;-74
2021/01/21 04:23:27;;;;;;;4.60;1.60;;;;;;;5.22;64.04;99134.63;4947378;28;20525;-76
2021/01/21 04:25:53;;;;;;;3.72;1.30;;;;;;;5.20;63.37;99120.81;4972047;28;20815;-77
2021/01/21 04:28:20;;;;;;;3.05;1.30;;;;;;;5.24;63.49;99116.25;4949697;28;20081;-74
2021/01/21 04:30:47;;;;;;;4.50;1.40;;;;;;;5.33;63.42;99108.69;4953089;28;20100;-76
2021/01/21 04:33:13;;;;;;;3.45;1.73;;;;;;;5.32;63.52;99103.59;4945860;28;20069;-75
2021/01/21 04:35:40;;;;;;;3.03;1.45;;;;;;;5.44;63.14;99105.41;4963954;28;20065;-74
2021/01/21 04:38:07;;;;;;;3.58;1.50;;;;;;;5.57;62.68;99097.66;4950803;28;20117;-75
2021/01/21 04:40:35;;;;;;;4.82;1.52;;;;;;;5.55;62.34;99100.38;4954893;28;20472;-75
2021/01/21 04:43:02;;;;;;;3.25;2.00;;;;;;;5.52;62.79;99095.34;4947540;28;20051;-75
2021/01/21 04:45:29;;;;;;;4.53;1.95;;;;;;;5.58;62.22;99089.75;4948343;28;20074;-75
2021/01/21 04:47:56;;;;;;;3.72;1.63;;;;;;;5.50;62.54;99101.59;4948544;28;20057;-75
2021/01/21 04:50:23;;;;;;;4.72;1.73;;;;;;;5.42;62.88;99101.25;4935461;29;20572;-76
2021/01/21 04:52:52;;;;;;;6.22;3.05;;;;;;;5.46;62.83;99092.28;4943271;28;20141;-75
2021/01/21 04:55:21;;;;;;;2.45;1.40;;;;;;;5.38;63.36;99091.91;4945246;28;20055;-75
2021/01/21 04:57:59;;;;;;;3.15;1.48;;;;;;;5.33;62.84;99095.66;4959896;28;20085;-76
2021/01/21 05:00:27;;;;;;;4.07;1.55;;;;;;;5.36;62.73;99092.03;4960739;28;20074;-74
2021/01/21 05:02:55;;;;;;;2.97;1.70;;;;;;;5.36;63.15;99078.97;4941816;28;20062;-75
2021/01/21 05:05:22;;;;;;;3.83;1.80;;;;;;;5.37;63.28;99085.03;4949972;28;20374;-75
2021/01/21 05:07:49;;;;;;;5.07;1.83;;;;;;;5.47;62.51;99080.91;4950232;28;20055;-75
2021/01/21 05:10:16;;;;;;;3.42;1.80;;;;;;;5.40;62.93;99079.59;4951122;28;20174;-76
2021/01/21 05:12:43;;;;;;;3.85;1.70;;;;;;;5.44;62.89;99070.66;4959308;28;20062;-76
2021/01/21 05:15:09;;;;;;;3.15;1.60;;;;;;;5.48;62.76;99072.13;4956327;28;20055;-75
2021/01/21 05:17:36;;;;;;;3.63;1.75;;;;;;;5.41;62.88;99070.88;4951812;28;20086;-74
2021/01/21 05:20:04;;;;;;;3.28;1.83;;;;;;;5.50;62.54;99067.69;4947643;29;20518;-73
2021/01/21 05:22:30;;;;;;;3.95;1.75;;;;;;;5.53;62.54;99072.69;4952301;28;20154;-74
2021/01/21 05:24:57;;;;;;;4.45;2.33;;;;;;;5.53;62.69;99070.06;4957967;28;20051;-73
2021/01/21 05:27:26;;;;;;;4.15;2.00;;;;;;;5.51;62.75;99075.41;4968872;28;20105;-73
2021/01/21 05:29:53;;;;;;;3.42;1.83;;;;;;;5.51;62.73;99066.72;4945798;28;20044;-72
2021/01/21 05:32:20;;;;;;;4.72;2.30;;;;;;;5.53;63.01;99070.91;4944547;28;20061;-74
2021/01/21 05:34:47;;;;;;;9.30;1.85;;;;;;;5.48;63.47;99072.97;4949303;28;20083;-75
2021/01/21 05:37:14;;;;;;;4.32;2.10;;;;;;;5.47;63.12;99065.25;4947546;28;20055;-72
2021/01/21 05:39:43;;;;;;;3.88;2.05;;;;;;;5.49;63.30;99065.97;4944093;28;20059;-74
2021/01/21 05:42:11;;;;;;;4.93;2.88;;;;;;;5.52;62.96;99066.63;4958470;28;20059;-73
2021/01/21 05:44:37;;;;;;;7.32;2.60;;;;;;;5.51;63.08;99058.91;4965938;28;20219;-74
2021/01/21 05:47:06;;;;;;;4.97;2.60;;;;;;;5.46;63.27;99063.56;4965396;28;20058;-75
2021/01/21 05:49:33;;;;;;;10.43;3.20;;;;;;;5.43;63.24;99069.81;4934298;29;20454;-74
2021/01/21 05:52:00;;;;;;;7.45;3.20;;;;;;;5.40;63.88;99066.56;4945577;28;20047;-73
2021/01/21 05:54:29;;;;;;;6.03;3.05;;;;;;;5.48;63.15;99062.53;4948876;28;20055;-74
2021/01/21 05:56:57;;;;;;;6.40;2.97;;;;;;;5.52;63.24;99069.22;4945838;28;20160;-73
2021/01/21 05:59:25;;;;;;;7.25;3.10;;;;;;;5.49;63.21;99065.97;4955346;28;20057;-72
2021/01/21 06:01:53;;;;;;;8.23;3.40;;;;;;;5.50;63.21;99065.06;4965611;28;20043;-73
2021/01/21 06:04:27;;;;;;;8.93;3.65;;;;;;;5.53;62.43;99052.63;4949481;28;20082;-75
2021/01/21 06:06:54;;;;;;;7.80;3.35;;;;;;;5.57;63.03;99041.06;4949098;28;20117;-73
2021/01/21 06:09:25;;;;;;;7.07;3.05;;;;;;;5.62;62.54;99048.59;4957067;28;20054;-75
2021/01/21 06:11:52;;;;;;;6.78;3.67;;;;;;;5.64;62.62;99043.31;4949614;28;20105;-72
2021/01/21 06:14:24;;;;;;;8.85;3.83;;;;;;;5.71;62.54;99048.00;4946524;28;20055;-74
2021/01/21 06:16:52;;;;;;;5.25;3.00;;;;;;;5.70;62.32;99048.13;4942810;28;20047;-75
2021/01/21 06:19:20;;;;;;;7.80;2.92;;;;;;;5.70;62.39;99046.34;4946188;28;20044;-76
2021/01/21 06:21:54;;;;;;;8.30;3.72;;;;;;;5.72;62.31;99044.50;4945260;28;20414;-75
2021/01/21 06:24:27;;;;;;;9.27;3.55;;;;;;;5.67;62.16;99054.38;4944596;28;20071;-78
2021/01/21 06:26:54;;;;;;;5.53;3.17;;;;;;;5.82;61.75;99047.34;4956922;28;20063;-76
2021/01/21 06:29:25;;;;;;;10.10;3.50;;;;;;;5.80;61.54;99043.97;4943450;28;20079;-77
2021/01/21 06:31:53;;;;;;;8.77;3.38;;;;;;;5.82;61.59;99029.91;4945468;28;20106;-75
2021/01/21 06:34:23;;;;;;;5.28;3.00;;;;;;;5.76;62.10;99047.72;4944571;28;20043;-76
2021/01/21 06:36:52;;;;;;;7.30;2.95;;;;;;;5.83;61.74;99030.72;4945673;28;20051;-76
2021/01/21 06:39:51;;;;;;;7.00;3.53;;;;;;;5.77;61.94;99034.59;4943507;28;20066;-75
2021/01/21 06:42:30;;;;;;;7.22;2.95;;;;;;;5.82;61.30;99021.22;4960929;28;20086;-76
2021/01/21 06:44:58;;;;;;;5.93;2.80;;;;;;;5.88;61.50;99020.81;4948323;28;20063;-76
2021/01/21 06:47:26;;;;;;;6.93;3.22;;;;;;;5.85;61.66;99026.22;4937193;28;20070;-75
2021/01/21 06:50:06;;;;;;;7.55;3.38;;;;;;;5.92;61.13;99014.50;4952356;28;20057;-75
2021/01/21 06:52:37;;;;;;;6.93;2.85;;;;;;;5.99;60.50;99014.91;4926908;28;20130;-75
2021/01/21 06:55:09;;;;;;;9.80;4.00;;;;;;;6.00;60.44;99012.22;4968940;28;20318;-73
2021/01/21 06:57:39;;;;;;;7.72;3.15;;;;;;;6.05;60.38;99010.13;4959057;28;20055;-74
2021/01/21 07:00:08;;;;;;;8.93;3.25;;;;;;;6.11;60.19;99013.28;4958476;28;20102;-74
2021/01/21 07:02:51;;;;;;;5.93;3.20;;;;;;;6.21;59.93;99012.56;4944377;28;20085;-74
2021/01/21 07:05:21;;;;;;;6.60;3.33;;;;;;;6.26;59.70;99018.34;4964033;28;20083;-72
2021/01/21 07:08:00;;;;;;;8.80;2.80;;;;;;;6.30;59.32;99011.97;4964909;28;20047;-74
2021/01/21 07:10:47;;;;;;;7.00;2.95;;;;;;;6.32;59.37;99009.25;4947762;28;20078;-73
2021/01/21 07:13:21;;;;;;;6.18;2.50;;;;;;;6.35;59.38;99006.44;4958120;28;20073;-75
2021/01/21 07:16:00;;;;;;;8.35;3.72;;;;;;;6.38;58.57;99008.81;4957343;28;20055;-74
2021/01/21 07:18:44;;;;;;;6.60;3.60;;;;;;;6.43;58.62;98996.28;4968214;28;20924;-76
2021/01/21 07:21:16;;;;;;;8.30;2.50;;;;;;;6.47;58.29;98991.69;4981541;28;20054;-76
2021/01/21 07:23:44;;;;;;;5.18;2.83;;;;;;;6.58;57.80;99010.09;4946309;28;20074;-76
2021/01/21 07:26:30;;;;;;;10.48;3.10;;;;;;;6.53;58.07;99007.81;4963269;28;20059;-77
2021/01/21 07:29:13;;;;;;;6.68;2.08;;;;;;;6.68;57.61;99002.47;4934962;29;20063;-77
2021/01/21 07:31:52;;;;;;;7.03;2.83;;;;;;;6.74;58.20;98983.72;4947656;28;20138;-77
2021/01/21 07:34:26;;;;;;;3.70;1.83;;;;;;;7.01;56.87;98978.34;4951914;28;20055;-77
2021/01/21 07:37:06;;;;;;;5.28;2.38;;;;;;;7.02;57.22;98966.91;4955517;28;21979;-78
2021/01/21 07:40:04;;;;;;;7.68;2.53;;;;;;;7.09;55.84;98968.16;4956742;28;20059;-78
2021/01/21 07:42:33;;;;;;;3.92;2.00;;;;;;;7.24;55.64;98956.59;4971742;28;20047;-81
2021/01/21 07:45:22;;;;;;;7.50;2.10;;;;;;;7.34;56.01;98959.41;4969979;28;20098;-77
2021/01/21 07:47:50;;;;;;;10.60;2.83;;;;;;;7.45;55.79;98964.69;4975846;28;20065;-79
2021/01/21 07:50:29;;;;;;;8.55;3.10;;;;;;;7.63;55.46;98969.53;4976195;28;20058;-78
2021/01/21 07:52:57;;;;;;;9.75;2.65;;;;;;;7.59;55.70;98964.53;4969222;28;20078;-78
2021/01/21 07:55:35;;;;;;;5.80;3.03;;;;;;;7.66;54.94;98951.00;4969752;28;20086;-78
2021/01/21 07:58:38;;;;;;;4.53;2.40;;;;;;;7.88;54.87;98958.94;4980272;28;20043;-81
2021/01/21 08:01:33;;;;;;;4.97;2.25;;;;;;;7.73;53.89;98953.03;4986986;28;20039;-79
2021/01/21 08:04:05;;;;;;;4.80;1.98;;;;;;;7.82;55.03;98960.22;4952428;28;20066;-80
2021/01/21 08:06:32;;;;;;;4.20;1.88;;;;;;;7.99;53.97;98960.75;4959858;28;20062;-80
2021/01/21 08:09:10;;;;;;;6.20;1.85;;;;;;;8.09;53.53;98951.25;4960497;28;20043;-78
2021/01/21 08:11:37;;;;;;;7.32;2.33;;;;;;;8.04;53.42;98943.72;4919305;28;20066;-79
2021/01/21 08:14:04;;;;;;;11.55;2.20;;;;;;;8.01;54.03;98941.31;4933814;28;20043;-79
2021/01/21 08:16:31;;;;;;;3.92;1.90;;;;;;;8.00;54.11;98938.81;4969275;28;20065;-78
2021/01/21 08:19:00;;;;;;;3.33;1.90;;;;;;;8.05;53.76;98952.41;4964615;28;20043;-79
2021/01/21 08:21:28;;;;;;;4.75;1.92;;;;;;;8.91;52.16;98951.91;4967111;28;20840;-79
2021/01/21 08:23:56;;;;;;;4.32;2.05;;;;;;;10.03;49.14;98941.06;4921754;28;20122;-79
2021/01/21 08:26:31;;;;;;;11.68;3.63;;;;;;;11.03;46.92;98930.78;4955864;28;20110;-77
2021/01/21 08:28:58;;;;;;;9.23;2.50;;;;;;;12.13;44.22;98941.13;4963846;28;20035;-80
2021/01/21 08:31:41;;;;;;;6.50;1.85;;;;;;;12.75;41.16;98925.69;4962002;28;20073;-79
2021/01/21 08:34:15;;;;;;;6.85;1.98;;;;;;;14.13;39.59;98923.59;4958039;28;20135;-79
2021/01/21 08:36:43;;;;;;;3.53;1.80;;;;;;;14.86;37.39;98908.16;4974201;28;20035;-77
2021/01/21 08:39:11;;;;;;;6.28;1.90;;;;;;;13.68;39.10;98913.97;4950022;28;20181;-79
2021/01/21 08:41:38;;;;;;;4.97;1.77;;;;;;;14.28;38.30;98914.13;4968155;28;20070;-77
2021/01/21 08:44:05;;;;;;;3.53;2.22;;;;;;;13.62;39.08;98915.41;4969298;28;20047;-79
2021/01/21 08:46:32;;;;;;;5.18;2.13;;;;;;;13.29;40.15;98935.41;4953154;28;20052;-77
2021/01/21 08:49:10;;;;;;;8.00;2.65;;;;;;;13.72;38.81;98931.19;4966738;28;20058;-77
2021/01/21 08:51:41;;;;;;;4.55;2.03;;;;;;;13.99;39.08;98937.38;4955053;28;20146;-77
2021/01/21 08:54:18;;;;;;;6.45;2.10;;;;;;;13.83;40.55;98919.56;4978266;28;20111;-78
2021/01/21 08:57:11;;;;;;;7.38;2.03;;;;;;;12.87;40.56;98937.69;4963127;28;20043;-77
2021/01/21 08:59:39;;;;;;;3.45;1.73;;;;;;;13.67;39.74;98944.06;4959432;28;20066;-78
2021/01/21 09:02:06;;;;;;;13.57;3.15;;;;;;;14.34;37.61;98926.72;4954511;28;20089;-77
2021/01/21 09:04:36;;;;;;;4.95;2.30;;;;;;;14.56;37.20;98920.09;4954606;28;20058;-77
2021/01/21 09:07:05;;;;;;;6.03;2.45;;;;;;;14.05;38.44;98923.53;4981313;28;20041;-77
2021/01/21 09:09:32;;;;;;;6.28;2.00;;;;;;;13.91;38.51;98922.25;4962757;28;20680;-78
2021/01/21 09:12:19;;;;;;;9.63;2.60;;;;;;;14.75;36.80;98926.97;4947528;28;20055;-80
2021/01/21 09:15:03;;;;;;;4.82;2.15;;;;;;;13.19;38.88;98934.59;4952015;28;20142;-77
2021/01/21 09:17:31;;;;;;;4.90;2.22;;;;;;;11.73;42.50;98934.19;4933665;28;20058;-76
2021/01/21 09:19:59;;;;;;;3.25;2.22;;;;;;;10.69;44.96;98942.56;4952266;28;20099;-78
2021/01/21 09:22:37;;;;;;;5.72;2.30;;;;;;;10.46;45.69;98940.13;4957022;28;20294;-78
2021/01/21 09:25:08;;;;;;;5.93;2.20;;;;;;;10.49;45.62;98942.50;4975999;28;20061;-77
2021/01/21 09:27:37;;;;;;;5.13;2.38;;;;;;;10.30;46.45;98937.09;4929557;28;20047;-77
2021/01/21 09:30:15;;;;;;;8.43;2.40;;;;;;;10.15;46.81;98934.78;4953908;28;20043;-78
2021/01/21 09:33:31;;;;;;;5.82;2.63;;;;;;;10.06;46.96;98930.28;4968312;28;20051;-78
2021/01/21 09:36:00;;;;;;;5.15;2.10;;;;;;;10.16;46.92;98925.09;4954062;28;20062;-77
2021/01/21 09:38:33;;;;;;;8.43;2.30;;;;;;;10.16;47.55;98893.53;4955067;28;20063;-77
2021/01/21 09:41:05;;;;;;;10.77;2.50;;;;;;;10.22;47.53;98898.28;4937610;28;20062;-78
2021/01/21 09:43:40;;;;;;;4.72;1.92;;;;;;;10.35;47.40;98909.44;4937750;28;20077;-76
2021/01/21 09:46:27;;;;;;;7.80;2.20;;;;;;;10.38;47.08;98911.00;4921411;28;20055;-73
2021/01/21 09:48:58;;;;;;;5.05;2.33;;;;;;;10.43;47.62;98906.16;4961437;28;20059;-76
2021/01/21 09:51:31;;;;;;;5.88;1.83;;;;;;;10.30;47.56;98916.06;4918985;28;20151;-76
2021/01/21 09:54:02;;;;;;;4.35;1.90;;;;;;;10.37;47.46;98910.16;4944492;28;20126;-76
2021/01/21 09:56:30;;;;;;;9.25;2.15;;;;;;;10.32;47.22;98916.78;4943462;28;20129;-75
2021/01/21 09:59:31;;;;;;;4.95;1.50;;;;;;;10.31;47.62;98939.63;4939735;28;20082;-77
2021/01/21 10:02:22;;;;;;;5.00;1.90;;;;;;;10.41;47.80;98937.03;4941410;28;20062;-76
2021/01/21 10:08:08;;;;;;;5.90;1.50;;;;;;;10.53;47.43;98958.81;4940210;29;20050;-76
2021/01/21 10:10:53;;;;;;;4.97;2.00;;;;;;;10.52;47.75;98950.09;4956616;28;20039;-78
2021/01/21 10:13:35;;;;;;;4.32;1.75;;;;;;;10.55;47.80;98947.22;4934017;28;20058;-78
2021/01/21 10:16:53;;;;;;;2.95;1.75;;;;;;;10.70;47.30;98952.97;4949756;28;20066;-76
2021/01/21 10:19:26;;;;;;;5.35;2.20;;;;;;;10.62;47.66;98966.75;4934021;28;20039;-77
2021/01/21 10:22:48;;;;;;;4.78;2.40;;;;;;;10.64;47.87;98982.44;4954698;28;20040;-76
2021/01/21 10:25:28;;;;;;;5.75;2.00;;;;;;;10.65;47.55;98984.09;4968774;28;20066;-77
2021/01/21 10:28:27;;;;;;;5.00;1.98;;;;;;;10.61;48.23;98983.53;4951993;28;20063;-77
2021/01/21 10:30:55;;;;;;;4.63;2.17;;;;;;;10.54;47.84;98997.34;4968327;28;20071;-77
2021/01/21 10:33:31;;;;;;;4.20;1.90;;;;;;;10.69;47.52;98998.66;4957876;28;20138;-78
2021/01/21 10:36:37;;;;;;;3.60;2.03;;;;;;;10.68;47.81;98985.66;4952872;28;20251;-77
2021/01/21 10:39:18;;;;;;;3.58;1.67;;;;;;;10.57;47.86;98971.59;4951938;28;20063;-78
2021/01/21 10:42:05;;;;;;;5.03;2.08;;;;;;;10.61;48.12;98972.16;4927042;28;20043;-75
2021/01/21 10:44:57;;;;;;;9.80;1.80;;;;;;;10.71;47.19;98973.03;4930005;28;20073;-76
2021/01/21 10:47:38;;;;;;;3.95;1.92;;;;;;;10.67;47.91;98976.91;4950822;28;20074;-76
2021/01/21 10:50:09;;;;;;;5.28;2.10;;;;;;;10.77;47.58;98964.63;4938798;28;20050;-75
2021/01/21 10:52:37;;;;;;;7.57;1.67;;;;;;;10.73;47.72;98972.94;4955261;28;20058;-76
2021/01/21 10:55:04;;;;;;;6.70;1.75;;;;;;;10.78;47.96;98965.47;4942037;28;20062;-75
2021/01/21 10:57:31;;;;;;;6.63;2.15;;;;;;;10.79;48.00;98980.28;4951762;28;20059;-76
2021/01/21 10:59:58;;;;;;;9.80;2.00;;;;;;;10.96;47.86;98976.22;4961637;28;20047;-78
2021/01/21 11:02:27;;;;;;;2.15;1.60;;;;;;;11.01;47.52;98969.56;4948141;28;20087;-77
2021/01/21 11:04:55;;;;;;;3.65;1.80;;;;;;;11.13;47.76;98971.13;4947503;28;20055;-75
2021/01/21 11:07:27;;;;;;;7.95;1.80;;;;;;;11.19;47.85;98963.66;4948958;28;20090;-75
2021/01/21 11:09:54;;;;;;;3.40;1.65;;;;;;;11.06;48.22;98969.16;4967806;28;20054;-76
2021/01/21 11:12:24;;;;;;;5.93;1.85;;;;;;;11.15;47.78;98960.47;4919682;28;20178;-80
2021/01/21 11:14:53;;;;;;;3.30;1.63;;;;;;;11.16;47.70;98956.84;4959841;28;20078;-77
2021/01/21 11:17:49;;;;;;;5.35;2.15;;;;;;;11.25;47.85;98966.56;4974076;28;20058;-78
2021/01/21 11:20:25;;;;;;;4.20;2.10;;;;;;;11.33;48.67;98960.63;4950240;28;20138;-77
2021/01/21 11:22:52;;;;;;;4.03;2.03;;;;;;;11.51;48.42;98959.00;4961580;28;20070;-77
2021/01/21 11:25:23;;;;;;;6.40;2.20;;;;;;;11.53;47.44;98954.44;4947435;28;20156;-82
2021/01/21 11:28:04;;;;;;;5.95;1.90;;;;;;;11.71;46.53;98959.88;4952654;28;20129;-75
2021/01/21 11:30:32;;;;;;;4.95;1.92;;;;;;;11.63;47.06;98955.28;4966255;28;20718;-79
2021/01/21 11:32:59;;;;;;;10.57;2.58;;;;;;;11.81;46.65;98952.78;4958524;28;20059;-79
2021/01/21 11:35:28;;;;;;;6.07;2.40;;;;;;;12.00;46.64;98956.41;4944641;28;20055;-79
2021/01/21 11:37:55;;;;;;;5.88;2.35;;;;;;;12.26;45.68;98944.28;4964000;28;20055;-79
2021/01/21 11:40:22;;;;;;;5.00;2.10;;;;;;;12.22;46.06;98947.38;4958947;28;20065;-77
2021/01/21 11:42:49;;;;;;;5.97;1.70;;;;;;;12.12;46.14;98939.47;4958111;28;20055;-79
2021/01/21 11:45:16;;;;;;;3.47;2.10;;;;;;;12.18;45.91;98943.34;4944721;28;21231;-77
2021/01/21 11:47:43;;;;;;;5.43;2.17;;;;;;;12.12;45.83;98944.75;4951493;28;20054;-77
2021/01/21 11:50:15;;;;;;;3.85;1.95;;;;;;;11.92;46.53;98938.66;4961992;28;20039;-75
2021/01/21 11:52:42;;;;;;;7.07;2.13;;;;;;;11.88;46.48;98946.00;4966521;28;20070;-79
2021/01/21 11:55:10;;;;;;;3.78;2.00;;;;;;;11.75;47.25;98942.81;4962452;28;20051;-80
2021/01/21 11:57:42;;;;;;;4.47;2.45;;;;;;;11.82;47.46;98932.53;4952636;28;20470;-78
2021/01/21 12:00:21;;;;;;;6.35;1.88;;;;;;;11.72;47.73;98940.44;4975526;28;20043;-80
2021/01/21 12:02:48;;;;;;;5.22;1.77;;;;;;;11.64;48.16;98937.66;4992297;28;20066;-77
2021/01/21 12:05:15;;;;;;;4.30;1.90;;;;;;;11.52;48.06;98936.13;4966391;28;20087;-78